createdAt,value
2017-03-02T00:00:45.383Z,939.62
2017-03-02T00:01:45.370Z,939.77
2017-03-02T00:02:45.356Z,939.73
2017-03-02T00:03:45.342Z,939.79
2017-03-02T00:04:45.330Z,939.75
2017-03-02T00:05:45.313Z,939.77
2017-03-02T00:06:45.300Z,939.79
2017-03-02T00:07:45.285Z,939.81
2017-03-02T00:08:45.271Z,939.71
2017-03-02T00:09:45.256Z,939.76
2017-03-02T00:10:45.242Z,939.71
2017-03-02T00:11:45.228Z,939.75
2017-03-02T00:12:45.214Z,939.76
2017-03-02T00:13:45.200Z,939.77
2017-03-02T00:14:45.185Z,939.71
2017-03-02T00:15:45.170Z,939.68
2017-03-02T00:16:45.156Z,939.65
2017-03-02T00:17:45.143Z,939.67
2017-03-02T00:18:45.128Z,939.68
2017-03-02T00:19:45.114Z,939.66
2017-03-02T00:20:45.100Z,939.6
2017-03-02T00:21:45.084Z,939.69
2017-03-02T00:22:45.072Z,939.68
2017-03-02T00:23:45.057Z,939.54
2017-03-02T00:24:45.043Z,939.57
2017-03-02T00:25:45.029Z,939.66
2017-03-02T00:26:45.014Z,939.61
2017-03-02T00:27:45.000Z,939.61
2017-03-02T00:28:44.987Z,939.57
2017-03-02T00:29:44.971Z,939.66
2017-03-02T00:30:44.957Z,939.59
2017-03-02T00:31:44.943Z,939.62
2017-03-02T00:32:44.931Z,939.59
2017-03-02T00:33:44.914Z,939.57
2017-03-02T00:34:44.900Z,939.68
2017-03-02T00:35:44.887Z,939.62
2017-03-02T00:36:44.872Z,939.69
2017-03-02T00:37:44.858Z,939.59
2017-03-02T00:38:44.844Z,939.59
2017-03-02T00:39:44.830Z,939.53
2017-03-02T00:40:44.815Z,939.59
2017-03-02T00:41:44.802Z,939.49
2017-03-02T00:42:44.787Z,939.58
2017-03-02T00:43:44.772Z,939.59
2017-03-02T00:44:44.759Z,939.47
2017-03-02T00:45:44.744Z,939.55
2017-03-02T00:46:44.731Z,939.63
2017-03-02T00:47:44.716Z,939.58
2017-03-02T00:48:44.701Z,939.56
2017-03-02T00:49:44.688Z,939.53
2017-03-02T00:50:44.674Z,939.56
2017-03-02T00:51:44.661Z,939.61
2017-03-02T00:52:44.644Z,939.62
2017-03-02T00:53:44.632Z,939.6
2017-03-02T00:54:44.618Z,939.7
2017-03-02T00:55:44.603Z,939.64
2017-03-02T00:56:44.588Z,939.69
2017-03-02T00:57:44.575Z,939.66
2017-03-02T00:58:44.563Z,939.59
2017-03-02T00:59:44.547Z,939.57
2017-03-02T01:00:44.533Z,939.53
2017-03-02T01:01:44.566Z,939.59
2017-03-02T01:02:44.505Z,939.59
2017-03-02T01:03:44.490Z,939.56
2017-03-02T01:04:44.477Z,939.66
2017-03-02T01:05:44.463Z,939.62
2017-03-02T01:06:44.449Z,939.55
2017-03-02T01:07:44.435Z,939.48
2017-03-02T01:08:44.421Z,939.54
2017-03-02T01:09:44.408Z,939.5
2017-03-02T01:10:44.393Z,939.47
2017-03-02T01:11:44.379Z,939.48
2017-03-02T01:12:44.366Z,939.48
2017-03-02T01:13:44.351Z,939.51
2017-03-02T01:14:44.337Z,939.51
2017-03-02T01:15:44.323Z,939.44
2017-03-02T01:16:44.310Z,939.51
2017-03-02T01:17:44.294Z,939.52
2017-03-02T01:18:44.282Z,939.45
2017-03-02T01:19:44.269Z,939.35
2017-03-02T01:20:44.254Z,939.33
2017-03-02T01:21:44.241Z,939.39
2017-03-02T01:22:44.228Z,939.31
2017-03-02T01:23:44.214Z,939.33
2017-03-02T01:24:44.202Z,939.43
2017-03-02T01:25:44.186Z,939.32
2017-03-02T01:26:44.171Z,939.37
2017-03-02T01:27:44.158Z,939.3
2017-03-02T01:28:44.144Z,939.36
2017-03-02T01:29:44.131Z,939.29
2017-03-02T01:30:44.117Z,939.28
2017-03-02T01:31:44.102Z,939.3
2017-03-02T01:32:44.089Z,939.2
2017-03-02T01:33:44.074Z,939.15
2017-03-02T01:34:44.061Z,939.25
2017-03-02T01:35:44.047Z,939.29
2017-03-02T01:36:44.033Z,939.28
2017-03-02T01:37:44.020Z,939.24
2017-03-02T01:38:44.006Z,939.29
2017-03-02T01:39:43.992Z,939.26
2017-03-02T01:40:43.978Z,939.2
2017-03-02T01:41:43.965Z,939.3
2017-03-02T01:42:43.950Z,939.21
2017-03-02T01:43:43.937Z,939.22
2017-03-02T01:44:43.925Z,939.21
2017-03-02T01:45:43.910Z,939.19
2017-03-02T01:46:43.897Z,939.23
2017-03-02T01:47:43.882Z,939.22
2017-03-02T01:48:43.869Z,939.16
2017-03-02T01:49:43.856Z,939.17
2017-03-02T01:50:43.841Z,939.1
2017-03-02T01:51:43.828Z,939.08
2017-03-02T01:52:43.814Z,939.01
2017-03-02T01:53:43.802Z,939.02
2017-03-02T01:54:43.787Z,939.1
2017-03-02T01:55:43.773Z,939.05
2017-03-02T01:56:43.763Z,939.04
2017-03-02T01:57:43.746Z,938.92
2017-03-02T01:58:43.732Z,939.06
2017-03-02T01:59:43.719Z,939.05
2017-03-02T02:00:43.706Z,939.07
2017-03-02T02:01:43.692Z,938.98
2017-03-02T02:02:43.677Z,939.04
2017-03-02T02:03:43.665Z,938.99
2017-03-02T02:04:43.649Z,938.97
2017-03-02T02:05:43.638Z,939.03
2017-03-02T02:06:43.623Z,938.97
2017-03-02T02:07:43.609Z,938.94
2017-03-02T02:08:43.597Z,938.94
2017-03-02T02:09:43.584Z,938.99
2017-03-02T02:10:43.571Z,938.94
2017-03-02T02:11:43.557Z,939.03
2017-03-02T02:12:43.542Z,939
2017-03-02T02:13:43.530Z,938.95
2017-03-02T02:14:43.517Z,938.96
2017-03-02T02:15:43.502Z,938.97
2017-03-02T02:16:43.489Z,938.97
2017-03-02T02:17:43.477Z,938.81
2017-03-02T02:18:43.463Z,938.81
2017-03-02T02:19:43.450Z,938.81
2017-03-02T02:20:43.436Z,938.88
2017-03-02T02:21:43.422Z,938.84
2017-03-02T02:22:43.409Z,938.87
2017-03-02T02:23:43.395Z,938.87
2017-03-02T02:24:43.382Z,938.92
2017-03-02T02:25:43.368Z,938.89
2017-03-02T02:26:43.353Z,938.78
2017-03-02T02:27:43.342Z,938.82
2017-03-02T02:28:43.330Z,938.74
2017-03-02T02:29:43.315Z,938.81
2017-03-02T02:30:43.302Z,938.82
2017-03-02T02:31:43.289Z,938.84
2017-03-02T02:32:43.275Z,938.79
2017-03-02T02:33:43.264Z,938.79
2017-03-02T02:34:43.248Z,938.84
2017-03-02T02:35:43.235Z,938.78
2017-03-02T02:36:43.221Z,938.81
2017-03-02T02:37:43.208Z,938.91
2017-03-02T02:38:43.194Z,938.89
2017-03-02T02:39:43.181Z,938.86
2017-03-02T02:40:43.169Z,938.81
2017-03-02T02:41:43.154Z,938.74
2017-03-02T02:42:43.140Z,938.82
2017-03-02T02:43:43.127Z,938.78
2017-03-02T02:44:43.116Z,938.73
2017-03-02T02:45:43.101Z,938.85
2017-03-02T02:46:43.111Z,938.81
2017-03-02T02:47:43.075Z,938.76
2017-03-02T02:48:43.060Z,938.74
2017-03-02T02:49:43.046Z,938.79
2017-03-02T02:50:43.036Z,938.73
2017-03-02T02:51:43.020Z,938.78
2017-03-02T02:52:43.011Z,938.83
2017-03-02T02:53:42.994Z,938.84
2017-03-02T02:54:42.981Z,938.9
2017-03-02T02:55:42.969Z,938.88
2017-03-02T02:56:42.956Z,938.89
2017-03-02T02:57:42.942Z,939.01
2017-03-02T02:58:42.929Z,938.89
2017-03-02T02:59:42.916Z,938.83
2017-03-02T03:00:42.903Z,938.89
2017-03-02T03:01:42.891Z,938.85
2017-03-02T03:02:42.877Z,938.98
2017-03-02T03:03:42.863Z,938.95
2017-03-02T03:04:42.850Z,939.02
2017-03-02T03:05:42.838Z,939.06
2017-03-02T03:06:42.823Z,938.99
2017-03-02T03:07:42.810Z,939.01
2017-03-02T03:08:42.797Z,939.01
2017-03-02T03:09:42.785Z,939
2017-03-02T03:10:42.773Z,939.01
2017-03-02T03:11:42.758Z,939.04
2017-03-02T03:12:42.746Z,939.03
2017-03-02T03:13:42.793Z,939.07
2017-03-02T03:14:42.721Z,939.04
2017-03-02T03:15:42.708Z,938.99
2017-03-02T03:16:42.694Z,939.06
2017-03-02T03:17:42.681Z,938.97
2017-03-02T03:18:42.669Z,939.06
2017-03-02T03:19:42.659Z,939.09
2017-03-02T03:20:42.643Z,939.02
2017-03-02T03:21:42.631Z,939
2017-03-02T03:22:42.616Z,938.98
2017-03-02T03:23:42.604Z,939.08
2017-03-02T03:24:42.593Z,938.99
2017-03-02T03:25:42.578Z,939.04
2017-03-02T03:26:42.565Z,939.03
2017-03-02T03:27:42.553Z,939
2017-03-02T03:28:42.538Z,939.04
2017-03-02T03:29:42.527Z,939.02
2017-03-02T03:30:42.515Z,938.99
2017-03-02T03:31:42.503Z,939
2017-03-02T03:32:42.487Z,939
2017-03-02T03:33:42.475Z,939.03
2017-03-02T03:34:42.462Z,938.96
2017-03-02T03:35:42.451Z,939.09
2017-03-02T03:36:42.438Z,938.99
2017-03-02T03:37:42.425Z,939.02
2017-03-02T03:38:42.411Z,939
2017-03-02T03:39:42.398Z,938.9
2017-03-02T03:40:42.385Z,938.94
2017-03-02T03:41:42.373Z,938.94
2017-03-02T03:42:42.360Z,938.95
2017-03-02T03:43:42.346Z,938.98
2017-03-02T03:44:42.334Z,938.93
2017-03-02T03:45:42.323Z,939.01
2017-03-02T03:46:42.308Z,938.98
2017-03-02T03:47:42.295Z,938.97
2017-03-02T03:48:42.283Z,938.97
2017-03-02T03:49:42.271Z,939.05
2017-03-02T03:50:42.255Z,939.02
2017-03-02T03:51:42.244Z,938.92
2017-03-02T03:52:42.231Z,938.94
2017-03-02T03:53:42.219Z,938.99
2017-03-02T03:54:42.206Z,938.95
2017-03-02T03:55:42.193Z,938.86
2017-03-02T03:56:42.181Z,938.86
2017-03-02T03:57:42.168Z,938.89
2017-03-02T03:58:42.154Z,938.93
2017-03-02T03:59:42.143Z,938.95
2017-03-02T04:00:42.129Z,938.99
2017-03-02T04:01:42.116Z,938.98
2017-03-02T04:02:42.136Z,938.99
2017-03-02T04:03:42.093Z,939.03
2017-03-02T04:04:42.078Z,939.01
2017-03-02T04:05:42.064Z,939.04
2017-03-02T04:06:42.053Z,939.01
2017-03-02T04:07:42.040Z,939.07
2017-03-02T04:08:42.028Z,939.11
2017-03-02T04:09:42.014Z,939.11
2017-03-02T04:10:42.003Z,939.13
2017-03-02T04:11:41.989Z,939.17
2017-03-02T04:12:41.976Z,939.24
2017-03-02T04:13:41.964Z,939.18
2017-03-02T04:14:41.951Z,939.26
2017-03-02T04:15:41.939Z,939.3
2017-03-02T04:16:41.924Z,939.25
2017-03-02T04:17:41.913Z,939.35
2017-03-02T04:18:41.901Z,939.23
2017-03-02T04:19:41.887Z,939.31
2017-03-02T04:20:41.874Z,939.33
2017-03-02T04:21:41.862Z,939.32
2017-03-02T04:22:41.849Z,939.39
2017-03-02T04:23:41.835Z,939.39
2017-03-02T04:24:41.823Z,939.42
2017-03-02T04:25:41.810Z,939.36
2017-03-02T04:26:41.800Z,939.34
2017-03-02T04:27:41.785Z,939.34
2017-03-02T04:28:41.774Z,939.38
2017-03-02T04:29:41.761Z,939.41
2017-03-02T04:30:41.747Z,939.36
2017-03-02T04:31:41.735Z,939.34
2017-03-02T04:32:41.725Z,939.43
2017-03-02T04:33:41.709Z,939.37
2017-03-02T04:34:41.697Z,939.36
2017-03-02T04:35:41.684Z,939.32
2017-03-02T04:36:41.672Z,939.38
2017-03-02T04:37:41.660Z,939.38
2017-03-02T04:38:41.646Z,939.32
2017-03-02T04:39:41.633Z,939.25
2017-03-02T04:40:41.621Z,939.31
2017-03-02T04:41:41.607Z,939.34
2017-03-02T04:42:41.594Z,939.25
2017-03-02T04:43:41.582Z,939.3
2017-03-02T04:44:41.570Z,939.33
2017-03-02T04:45:41.557Z,939.28
2017-03-02T04:46:41.543Z,939.35
2017-03-02T04:47:41.530Z,939.34
2017-03-02T04:48:41.518Z,939.39
2017-03-02T04:49:41.504Z,939.41
2017-03-02T04:50:41.493Z,939.38
2017-03-02T04:51:41.478Z,939.36
2017-03-02T04:52:41.465Z,939.29
2017-03-02T04:53:41.453Z,939.32
2017-03-02T04:54:41.440Z,939.47
2017-03-02T04:55:41.429Z,939.39
2017-03-02T04:56:41.414Z,939.41
2017-03-02T04:57:41.400Z,939.34
2017-03-02T04:58:41.387Z,939.38
2017-03-02T04:59:41.374Z,939.32
2017-03-02T05:00:41.362Z,939.28
2017-03-02T05:01:41.350Z,939.32
2017-03-02T05:02:41.335Z,939.32
2017-03-02T05:03:41.322Z,939.34
2017-03-02T05:04:41.310Z,939.37
2017-03-02T05:05:41.296Z,939.38
2017-03-02T05:06:41.284Z,939.36
2017-03-02T05:07:41.268Z,939.38
2017-03-02T05:08:41.257Z,939.37
2017-03-02T05:09:41.245Z,939.32
2017-03-02T05:10:41.231Z,939.29
2017-03-02T05:11:41.219Z,939.32
2017-03-02T05:12:41.206Z,939.34
2017-03-02T05:13:41.194Z,939.32
2017-03-02T05:14:41.179Z,939.17
2017-03-02T05:15:41.166Z,939.28
2017-03-02T05:16:41.153Z,939.25
2017-03-02T05:17:41.140Z,939.23
2017-03-02T05:18:41.147Z,939.34
2017-03-02T05:19:41.113Z,939.36
2017-03-02T05:20:41.101Z,939.32
2017-03-02T05:21:41.088Z,939.33
2017-03-02T05:22:41.075Z,939.32
2017-03-02T05:23:41.089Z,939.41
2017-03-02T05:24:41.049Z,939.38
2017-03-02T05:25:41.035Z,939.38
2017-03-02T05:26:41.022Z,939.36
2017-03-02T05:27:41.010Z,939.45
2017-03-02T05:28:40.997Z,939.44
2017-03-02T05:29:40.982Z,939.44
2017-03-02T05:30:40.972Z,939.45
2017-03-02T05:31:40.959Z,939.44
2017-03-02T05:32:40.946Z,939.48
2017-03-02T05:33:40.931Z,939.54
2017-03-02T05:34:40.918Z,939.53
2017-03-02T05:35:40.906Z,939.54
2017-03-02T05:36:40.893Z,939.48
2017-03-02T05:37:40.879Z,939.58
2017-03-02T05:38:40.869Z,939.6
2017-03-02T05:39:40.853Z,939.58
2017-03-02T05:40:40.842Z,939.56
2017-03-02T05:41:40.827Z,939.6
2017-03-02T05:42:40.815Z,939.54
2017-03-02T05:43:40.803Z,939.49
2017-03-02T05:44:40.788Z,939.53
2017-03-02T05:45:40.777Z,939.41
2017-03-02T05:46:40.763Z,939.4
2017-03-02T05:47:40.752Z,939.41
2017-03-02T05:48:40.743Z,939.49
2017-03-02T05:49:40.725Z,939.4
2017-03-02T05:50:40.713Z,939.46
2017-03-02T05:51:40.698Z,939.49
2017-03-02T05:52:40.685Z,939.55
2017-03-02T05:53:40.675Z,939.61
2017-03-02T05:54:40.659Z,939.59
2017-03-02T05:55:40.646Z,939.59
2017-03-02T05:56:40.633Z,939.54
2017-03-02T05:57:40.621Z,939.66
2017-03-02T05:58:40.610Z,939.6
2017-03-02T05:59:40.596Z,939.62
2017-03-02T06:00:40.582Z,939.54
2017-03-02T06:01:40.569Z,939.57
2017-03-02T06:02:40.556Z,939.7
2017-03-02T06:03:40.543Z,939.5
2017-03-02T06:04:40.531Z,939.56
2017-03-02T06:05:40.518Z,939.55
2017-03-02T06:06:40.506Z,939.64
2017-03-02T06:07:40.493Z,939.6
2017-03-02T06:08:40.479Z,939.69
2017-03-02T06:09:40.465Z,939.61
2017-03-02T06:10:40.453Z,939.61
2017-03-02T06:11:40.440Z,939.69
2017-03-02T06:12:40.427Z,939.68
2017-03-02T06:13:40.412Z,939.53
2017-03-02T06:14:40.399Z,939.56
2017-03-02T06:15:40.392Z,939.54
2017-03-02T06:16:40.374Z,939.52
2017-03-02T06:17:40.361Z,939.61
2017-03-02T06:18:40.350Z,939.64
2017-03-02T06:19:40.336Z,939.69
2017-03-02T06:20:40.322Z,939.59
2017-03-02T06:21:40.317Z,939.61
2017-03-02T06:22:40.298Z,939.61
2017-03-02T06:23:40.283Z,939.75
2017-03-02T06:24:40.271Z,939.67
2017-03-02T06:25:40.258Z,939.73
2017-03-02T06:26:40.272Z,939.63
2017-03-02T06:27:40.232Z,939.62
2017-03-02T06:28:40.220Z,939.72
2017-03-02T06:29:40.206Z,939.75
2017-03-02T06:30:40.194Z,939.88
2017-03-02T06:31:40.225Z,939.97
2017-03-02T06:32:40.168Z,939.9
2017-03-02T06:33:40.156Z,939.83
2017-03-02T06:34:40.143Z,939.87
2017-03-02T06:35:40.128Z,939.84
2017-03-02T06:36:40.152Z,940.08
2017-03-02T06:37:40.103Z,940.02
2017-03-02T06:38:40.090Z,940.01
2017-03-02T06:39:40.077Z,940.05
2017-03-02T06:40:40.064Z,940.12
2017-03-02T06:41:40.075Z,939.99
2017-03-02T06:42:40.038Z,940.1
2017-03-02T06:43:40.025Z,940.2
2017-03-02T06:44:40.018Z,940.19
2017-03-02T06:45:40.001Z,940.25
2017-03-02T06:46:39.987Z,940.24
2017-03-02T06:47:39.974Z,940.27
2017-03-02T06:48:39.961Z,940.21
2017-03-02T06:49:39.948Z,940.16
2017-03-02T06:50:39.935Z,940.21
2017-03-02T06:51:39.922Z,940.38
2017-03-02T06:52:39.910Z,940.37
2017-03-02T06:53:39.897Z,940.45
2017-03-02T06:54:39.883Z,940.44
2017-03-02T06:55:39.870Z,940.39
2017-03-02T06:56:39.859Z,940.46
2017-03-02T06:57:39.845Z,940.46
2017-03-02T06:58:39.832Z,940.4
2017-03-02T06:59:39.819Z,940.39
2017-03-02T07:00:39.804Z,940.4
2017-03-02T07:01:39.793Z,940.5
2017-03-02T07:02:39.781Z,940.52
2017-03-02T07:03:39.768Z,940.47
2017-03-02T07:04:39.754Z,940.54
2017-03-02T07:05:39.741Z,940.71
2017-03-02T07:06:39.729Z,940.56
2017-03-02T07:07:39.718Z,940.76
2017-03-02T07:08:39.703Z,940.74
2017-03-02T07:09:39.690Z,940.69
2017-03-02T07:10:39.677Z,940.74
2017-03-02T07:11:39.665Z,940.79
2017-03-02T07:12:39.673Z,940.75
2017-03-02T07:13:39.639Z,940.83
2017-03-02T07:14:39.631Z,940.85
2017-03-02T07:15:39.613Z,940.88
2017-03-02T07:16:39.600Z,940.83
2017-03-02T07:17:39.589Z,940.83
2017-03-02T07:18:39.575Z,940.86
2017-03-02T07:19:39.563Z,940.87
2017-03-02T07:20:39.549Z,940.81
2017-03-02T07:21:39.537Z,940.81
2017-03-02T07:22:39.523Z,940.81
2017-03-02T07:23:39.510Z,940.82
2017-03-02T07:24:39.497Z,940.85
2017-03-02T07:25:39.485Z,940.85
2017-03-02T07:26:39.472Z,940.84
2017-03-02T07:27:39.458Z,940.88
2017-03-02T07:28:39.446Z,940.96
2017-03-02T07:29:39.434Z,940.86
2017-03-02T07:30:39.422Z,940.92
2017-03-02T07:31:39.407Z,941
2017-03-02T07:32:39.396Z,941.07
2017-03-02T07:33:39.389Z,941.05
2017-03-02T07:34:39.369Z,941.07
2017-03-02T07:35:39.358Z,941.09
2017-03-02T07:36:39.346Z,941.14
2017-03-02T07:37:39.331Z,941.22
2017-03-02T07:38:39.319Z,941.18
2017-03-02T07:39:39.306Z,941.26
2017-03-02T07:40:39.294Z,941.12
2017-03-02T07:41:39.283Z,941.28
2017-03-02T07:42:39.270Z,941.44
2017-03-02T07:43:39.256Z,941.42
2017-03-02T07:44:39.244Z,941.38
2017-03-02T07:45:39.232Z,941.43
2017-03-02T07:46:39.218Z,941.34
2017-03-02T07:47:39.205Z,941.34
2017-03-02T07:48:39.192Z,941.26
2017-03-02T07:49:39.180Z,941.27
2017-03-02T07:50:39.172Z,941.45
2017-03-02T07:51:39.154Z,941.48
2017-03-02T07:52:39.143Z,941.53
2017-03-02T07:53:39.128Z,941.47
2017-03-02T07:54:39.116Z,941.65
2017-03-02T07:55:39.106Z,941.55
2017-03-02T07:56:39.090Z,941.62
2017-03-02T07:57:39.078Z,941.57
2017-03-02T07:58:39.065Z,941.64
2017-03-02T07:59:39.052Z,941.66
2017-03-02T08:00:39.040Z,941.65
2017-03-02T08:01:39.027Z,941.71
2017-03-02T08:02:39.013Z,941.71
2017-03-02T08:03:39.001Z,941.7
2017-03-02T08:04:38.988Z,941.75
2017-03-02T08:05:38.977Z,941.74
2017-03-02T08:06:38.962Z,941.63
2017-03-02T08:07:38.949Z,941.77
2017-03-02T08:08:38.938Z,941.66
2017-03-02T08:09:38.926Z,941.6
2017-03-02T08:10:38.912Z,941.8
2017-03-02T08:11:38.901Z,941.81
2017-03-02T08:12:38.889Z,941.79
2017-03-02T08:13:38.875Z,941.76
2017-03-02T08:14:38.864Z,942.06
2017-03-02T08:15:38.850Z,941.89
2017-03-02T08:16:38.837Z,942.12
2017-03-02T08:17:38.824Z,942.01
2017-03-02T08:18:38.814Z,942.2
2017-03-02T08:19:38.801Z,942.22
2017-03-02T08:20:38.790Z,942.25
2017-03-02T08:21:38.775Z,942.43
2017-03-02T08:22:38.764Z,942.23
2017-03-02T08:23:38.754Z,942.47
2017-03-02T08:24:38.737Z,942.71
2017-03-02T08:25:38.728Z,942.86
2017-03-02T08:26:38.716Z,942.47
2017-03-02T08:27:38.701Z,942.47
2017-03-02T08:28:38.688Z,942.45
2017-03-02T08:29:38.675Z,942.84
2017-03-02T08:30:38.663Z,942.62
2017-03-02T08:31:38.649Z,942.6
2017-03-02T08:32:38.639Z,942.64
2017-03-02T08:33:38.624Z,942.61
2017-03-02T08:34:38.610Z,942.71
2017-03-02T08:35:38.596Z,942.71
2017-03-02T08:36:38.584Z,942.78
2017-03-02T08:37:38.569Z,942.74
2017-03-02T08:38:38.556Z,942.95
2017-03-02T08:39:38.542Z,942.79
2017-03-02T08:40:38.529Z,942.95
2017-03-02T08:41:38.516Z,942.88
2017-03-02T08:42:38.502Z,942.93
2017-03-02T08:43:38.487Z,942.9
2017-03-02T08:44:38.474Z,942.99
2017-03-02T08:45:38.460Z,943.08
2017-03-02T08:46:38.446Z,942.97
2017-03-02T08:47:38.432Z,942.96
2017-03-02T08:48:38.418Z,942.97
2017-03-02T08:49:38.404Z,943.05
2017-03-02T08:50:38.389Z,942.92
2017-03-02T08:51:38.409Z,942.98
2017-03-02T08:52:38.363Z,942.94
2017-03-02T08:53:38.350Z,943.13
2017-03-02T08:54:38.335Z,943.15
2017-03-02T08:55:38.322Z,943.22
2017-03-02T08:56:38.307Z,943.25
2017-03-02T08:57:38.293Z,943.1
2017-03-02T08:58:38.279Z,942.95
2017-03-02T08:59:38.267Z,943.22
2017-03-02T09:00:38.253Z,943.18
2017-03-02T09:01:38.236Z,943.31
2017-03-02T09:02:38.224Z,943.23
2017-03-02T09:03:38.209Z,943.37
2017-03-02T09:04:38.197Z,943.12
2017-03-02T09:05:38.181Z,943.45
2017-03-02T09:06:38.168Z,943.27
2017-03-02T09:07:38.155Z,943.25
2017-03-02T09:08:38.139Z,943.22
2017-03-02T09:09:38.126Z,943.47
2017-03-02T09:10:38.113Z,943.36
2017-03-02T09:11:38.101Z,943.41
2017-03-02T09:12:38.085Z,943.32
2017-03-02T09:13:38.072Z,943.33
2017-03-02T09:14:38.059Z,943.36
2017-03-02T09:15:38.045Z,943.36
2017-03-02T09:16:38.032Z,943.31
2017-03-02T09:17:38.018Z,943.34
2017-03-02T09:18:38.005Z,943.44
2017-03-02T09:19:37.991Z,943.42
2017-03-02T09:20:37.978Z,943.64
2017-03-02T09:21:37.966Z,943.39
2017-03-02T09:22:37.952Z,943.38
2017-03-02T09:23:37.937Z,943.37
2017-03-02T09:24:37.924Z,943.44
2017-03-02T09:25:37.910Z,943.45
2017-03-02T09:26:37.897Z,943.5
2017-03-02T09:27:37.884Z,943.51
2017-03-02T09:28:37.873Z,943.49
2017-03-02T09:29:37.858Z,943.52
2017-03-02T09:30:37.845Z,943.67
2017-03-02T09:31:37.833Z,943.52
2017-03-02T09:32:37.819Z,943.62
2017-03-02T09:33:37.807Z,943.49
2017-03-02T09:34:37.793Z,943.72
2017-03-02T09:35:37.780Z,943.58
2017-03-02T09:36:37.768Z,943.74
2017-03-02T09:37:37.754Z,943.72
2017-03-02T09:38:37.741Z,943.59
2017-03-02T09:39:37.729Z,943.6
2017-03-02T09:40:37.716Z,943.52
2017-03-02T09:41:37.703Z,943.54
2017-03-02T09:42:37.690Z,943.62
2017-03-02T09:43:37.679Z,943.55
2017-03-02T09:44:37.666Z,943.6
2017-03-02T09:45:37.653Z,943.66
2017-03-02T09:46:37.640Z,943.61
2017-03-02T09:47:37.628Z,943.46
2017-03-02T09:48:37.616Z,943.52
2017-03-02T09:49:37.603Z,943.63
2017-03-02T09:50:37.591Z,943.66
2017-03-02T09:51:37.578Z,943.7
2017-03-02T09:52:37.567Z,943.52
2017-03-02T09:53:37.601Z,943.6
2017-03-02T09:54:37.540Z,943.8
2017-03-02T09:55:37.528Z,943.64
2017-03-02T09:56:37.517Z,943.65
2017-03-02T09:57:37.503Z,943.51
2017-03-02T09:58:37.491Z,943.44
2017-03-02T09:59:37.478Z,943.53
2017-03-02T10:00:37.466Z,943.56
2017-03-02T10:01:37.453Z,943.65
2017-03-02T10:02:37.440Z,943.6
2017-03-02T10:03:37.427Z,943.56
2017-03-02T10:04:37.415Z,943.51
2017-03-02T10:05:37.402Z,943.48
2017-03-02T10:06:37.390Z,943.5
2017-03-02T10:07:37.377Z,943.53
2017-03-02T10:08:37.364Z,943.53
2017-03-02T10:09:37.351Z,943.54
2017-03-02T10:10:37.338Z,943.6
2017-03-02T10:11:37.324Z,943.66
2017-03-02T10:12:37.314Z,943.68
2017-03-02T10:13:37.300Z,943.56
2017-03-02T10:14:37.288Z,943.74
2017-03-02T10:15:37.276Z,943.88
2017-03-02T10:16:37.263Z,943.66
2017-03-02T10:17:37.250Z,943.79
2017-03-02T10:18:37.237Z,943.79
2017-03-02T10:19:37.225Z,943.81
2017-03-02T10:20:37.211Z,943.79
2017-03-02T10:21:37.200Z,943.97
2017-03-02T10:22:37.187Z,943.88
2017-03-02T10:23:37.176Z,943.99
2017-03-02T10:24:37.167Z,944.01
2017-03-02T10:25:37.151Z,943.92
2017-03-02T10:26:37.140Z,944.01
2017-03-02T10:27:37.129Z,944
2017-03-02T10:28:37.116Z,944.21
2017-03-02T10:29:37.104Z,944.01
2017-03-02T10:30:37.093Z,944.1
2017-03-02T10:31:37.080Z,944.16
2017-03-02T10:32:37.068Z,944.09
2017-03-02T10:33:37.057Z,944.17
2017-03-02T10:34:37.046Z,944.19
2017-03-02T10:35:37.034Z,944.14
2017-03-02T10:36:37.022Z,944.34
2017-03-02T10:37:37.010Z,944.24
2017-03-02T10:38:36.999Z,944.16
2017-03-02T10:39:36.987Z,944.31
2017-03-02T10:40:36.976Z,944.43
2017-03-02T10:41:36.964Z,944.26
2017-03-02T10:42:36.952Z,944.2
2017-03-02T10:43:36.940Z,944.36
2017-03-02T10:44:36.929Z,944.28
2017-03-02T10:45:36.922Z,944.32
2017-03-02T10:46:36.909Z,944.28
2017-03-02T10:47:36.897Z,944.47
2017-03-02T10:48:36.884Z,944.49
2017-03-02T10:49:36.874Z,944.52
2017-03-02T10:50:36.863Z,944.57
2017-03-02T10:51:36.851Z,944.59
2017-03-02T10:52:36.840Z,944.48
2017-03-02T10:53:36.831Z,944.53
2017-03-02T10:54:36.820Z,944.75
2017-03-02T10:55:36.808Z,944.76
2017-03-02T10:56:36.798Z,944.5
2017-03-02T10:57:36.787Z,944.66
2017-03-02T10:58:36.778Z,944.59
2017-03-02T10:59:36.763Z,944.71
2017-03-02T11:00:36.752Z,944.51
2017-03-02T11:01:36.742Z,944.77
2017-03-02T11:02:36.732Z,944.67
2017-03-02T11:03:36.720Z,944.62
2017-03-02T11:04:36.708Z,944.53
2017-03-02T11:05:36.698Z,944.51
2017-03-02T11:06:36.686Z,944.51
2017-03-02T11:07:36.675Z,944.67
2017-03-02T11:08:36.664Z,944.47
2017-03-02T11:09:36.654Z,944.58
2017-03-02T11:10:36.644Z,944.49
2017-03-02T11:11:36.631Z,944.5
2017-03-02T11:12:36.619Z,944.54
2017-03-02T11:13:36.609Z,944.52
2017-03-02T11:14:36.598Z,944.44
2017-03-02T11:15:36.588Z,944.46
2017-03-02T11:16:36.578Z,944.58
2017-03-02T11:17:36.565Z,944.67
2017-03-02T11:18:36.553Z,944.6
2017-03-02T11:19:36.542Z,944.66
2017-03-02T11:20:36.531Z,944.47
2017-03-02T11:21:36.519Z,944.4
2017-03-02T11:22:36.507Z,944.68
2017-03-02T11:23:36.496Z,944.65
2017-03-02T11:24:36.484Z,944.58
2017-03-02T11:25:36.473Z,944.48
2017-03-02T11:26:36.462Z,944.64
2017-03-02T11:27:36.451Z,944.61
2017-03-02T11:28:36.440Z,944.68
2017-03-02T11:29:36.428Z,944.49
2017-03-02T11:30:36.418Z,944.54
2017-03-02T11:31:36.406Z,944.52
2017-03-02T11:32:36.395Z,944.65
2017-03-02T11:33:36.384Z,944.69
2017-03-02T11:34:36.374Z,944.85
2017-03-02T11:35:36.363Z,944.69
2017-03-02T11:36:36.351Z,944.76
2017-03-02T11:37:36.340Z,944.63
2017-03-02T11:38:36.329Z,944.89
2017-03-02T11:39:36.319Z,944.91
2017-03-02T11:40:36.308Z,944.89
2017-03-02T11:41:36.297Z,944.89
2017-03-02T11:42:36.286Z,945.16
2017-03-02T11:43:36.276Z,944.84
2017-03-02T11:44:36.265Z,944.96
2017-03-02T11:45:36.254Z,944.85
2017-03-02T11:46:36.244Z,944.89
2017-03-02T11:47:36.234Z,944.88
2017-03-02T11:48:36.222Z,945.02
2017-03-02T11:49:36.211Z,944.91
2017-03-02T11:50:36.201Z,944.89
2017-03-02T11:51:36.191Z,944.78
2017-03-02T11:52:36.180Z,945.07
2017-03-02T11:53:36.167Z,944.87
2017-03-02T11:54:36.157Z,944.82
2017-03-02T11:55:36.149Z,944.83
2017-03-02T11:56:36.137Z,944.86
2017-03-02T11:57:36.126Z,944.85
2017-03-02T11:58:36.116Z,944.89
2017-03-02T11:59:36.105Z,944.88
2017-03-02T12:00:36.093Z,944.89
2017-03-02T12:01:36.082Z,944.79
2017-03-02T12:02:36.072Z,944.92
2017-03-02T12:03:36.063Z,944.93
2017-03-02T12:04:36.049Z,944.94
2017-03-02T12:05:36.039Z,944.88
2017-03-02T12:06:36.029Z,944.86
2017-03-02T12:07:36.018Z,944.93
2017-03-02T12:08:36.024Z,945.01
2017-03-02T12:09:35.997Z,944.96
2017-03-02T12:10:35.985Z,944.83
2017-03-02T12:11:35.972Z,944.88
2017-03-02T12:12:35.963Z,944.83
2017-03-02T12:13:35.953Z,944.76
2017-03-02T12:14:35.941Z,944.87
2017-03-02T12:15:35.934Z,944.99
2017-03-02T12:16:35.937Z,945.03
2017-03-02T12:17:35.907Z,944.96
2017-03-02T12:18:35.896Z,945.05
2017-03-02T12:19:35.884Z,944.97
2017-03-02T12:20:35.874Z,944.96
2017-03-02T12:21:35.863Z,944.87
2017-03-02T12:22:35.852Z,944.97
2017-03-02T12:23:35.842Z,945.01
2017-03-02T12:24:35.830Z,944.81
2017-03-02T12:25:35.820Z,945.04
2017-03-02T12:26:35.810Z,944.78
2017-03-02T12:27:35.798Z,944.86
2017-03-02T12:28:35.788Z,944.93
2017-03-02T12:29:35.776Z,945.24
2017-03-02T12:30:35.767Z,945.01